Time;durP1;ratioP1;P1;durP2;ratioP2;P2;SDS_P1;SDS_P2;PMS_P1;PMS_P2;Temp;Humidity;BMP_temperature;BMP_pressure;BME280_temperature;BME280_humidity;BME280_pressure;Samples;Min_cycle;Max_cycle;Signal;HPM_P1;HPM_P2
2023/06/22 00:02:15;;;;;;;30.13;22.95;;;19.60;99.90;;;;;;5032991;28;20391;-64
2023/06/22 00:04:41;;;;;;;30.05;23.15;;;19.50;99.90;;;;;;5014608;28;20399;-64
2023/06/22 00:07:06;;;;;;;29.55;22.25;;;19.50;99.90;;;;;;5032675;28;20056;-64
2023/06/22 00:09:33;;;;;;;31.35;23.15;;;19.50;99.90;;;;;;5032807;28;20139;-64
2023/06/22 00:11:58;;;;;;;31.77;23.92;;;19.50;99.90;;;;;;5014926;28;20060;-64
2023/06/22 00:14:24;;;;;;;34.28;24.77;;;19.40;99.90;;;;;;5032286;28;20124;-64
2023/06/22 00:16:54;;;;;;;32.25;24.13;;;19.40;99.90;;;;;;5032822;28;20037;-64
2023/06/22 00:19:21;;;;;;;32.00;22.60;;;19.40;99.90;;;;;;5032621;28;20142;-64
2023/06/22 00:21:47;;;;;;;29.13;22.38;;;19.40;99.90;;;;;;5032684;28;20045;-64
2023/06/22 00:24:13;;;;;;;30.02;23.10;;;19.30;99.90;;;;;;5032206;28;20048;-64
2023/06/22 00:26:38;;;;;;;27.10;20.20;;;19.30;99.90;;;;;;5014029;28;20095;-64
2023/06/22 00:29:04;;;;;;;27.67;20.55;;;19.30;99.90;;;;;;5032048;28;20052;-64
2023/06/22 00:31:30;;;;;;;25.17;19.60;;;19.30;99.90;;;;;;5031067;28;20055;-64
2023/06/22 00:33:55;;;;;;;28.35;22.10;;;19.30;99.90;;;;;;5032203;28;20084;-64
2023/06/22 00:36:21;;;;;;;27.77;21.10;;;19.20;99.90;;;;;;5032306;28;20033;-64
2023/06/22 00:38:46;;;;;;;29.95;21.40;;;19.30;99.90;;;;;;5032189;28;20048;-64
2023/06/22 00:41:12;;;;;;;30.85;23.45;;;19.30;99.90;;;;;;5032094;28;20037;-64
2023/06/22 00:43:37;;;;;;;29.20;22.77;;;19.30;99.90;;;;;;5014217;28;20045;-65
2023/06/22 00:46:03;;;;;;;30.13;23.55;;;19.30;99.90;;;;;;5032193;28;20086;-64
2023/06/22 00:48:29;;;;;;;31.90;24.80;;;19.20;99.90;;;;;;5032198;28;20384;-64
2023/06/22 00:50:55;;;;;;;26.92;20.60;;;19.20;99.90;;;;;;5032076;28;20669;-64
2023/06/22 00:53:21;;;;;;;30.42;21.63;;;19.10;99.90;;;;;;5031844;28;20045;-64
2023/06/22 00:55:51;;;;;;;31.17;22.52;;;19.10;99.90;;;;;;5031821;28;20037;-64
2023/06/22 00:58:21;;;;;;;31.92;22.95;;;19.00;99.90;;;;;;5032178;28;20038;-64
2023/06/22 01:00:47;;;;;;;36.95;26.60;;;19.00;99.90;;;;;;5031241;28;20091;-65
2023/06/22 01:03:12;;;;;;;38.40;27.67;;;19.00;99.90;;;;;;5031894;28;20046;-64
2023/06/22 01:05:40;;;;;;;35.13;27.23;;;19.00;99.90;;;;;;5031856;28;20395;-64
2023/06/22 01:08:19;;;;;;;37.85;27.08;;;19.00;99.90;;;;;;5031691;28;20073;-64
2023/06/22 01:10:58;;;;;;;36.55;26.88;;;18.90;99.90;;;;;;5032113;28;20095;-64
2023/06/22 01:13:41;;;;;;;41.95;29.60;;;18.90;99.90;;;;;;5031617;28;20042;-64
2023/06/22 01:16:19;;;;;;;40.63;28.75;;;18.90;99.90;;;;;;5014215;28;20069;-64
2023/06/22 01:18:47;;;;;;;38.95;29.05;;;18.90;99.90;;;;;;5031540;28;20116;-64
2023/06/22 01:21:18;;;;;;;37.03;27.10;;;18.80;99.90;;;;;;5031993;28;20037;-64
2023/06/22 01:24:21;;;;;;;40.55;29.33;;;18.80;99.90;;;;;;5031693;28;20068;-64
2023/06/22 01:26:55;;;;;;;40.97;28.90;;;18.80;99.90;;;;;;5031583;28;20045;-64
2023/06/22 01:29:22;;;;;;;35.85;25.88;;;18.80;99.90;;;;;;5031502;28;20044;-64
2023/06/22 01:31:49;;;;;;;34.95;25.63;;;18.80;99.90;;;;;;5031804;28;20033;-64
2023/06/22 01:34:16;;;;;;;34.05;23.90;;;18.70;99.90;;;;;;5013186;28;20076;-64
2023/06/22 01:36:43;;;;;;;32.03;24.27;;;18.70;99.90;;;;;;5031509;28;20518;-64
2023/06/22 01:39:10;;;;;;;33.03;25.00;;;18.60;99.90;;;;;;5014079;28;20048;-64
2023/06/22 01:41:37;;;;;;;33.40;24.80;;;18.50;99.90;;;;;;5031409;28;20435;-64
2023/06/22 01:44:07;;;;;;;34.75;24.90;;;18.60;99.90;;;;;;5031450;28;20056;-64
2023/06/22 01:46:34;;;;;;;32.13;24.65;;;18.60;99.90;;;;;;5031275;28;20041;-64
2023/06/22 01:49:00;;;;;;;32.70;24.15;;;18.60;99.90;;;;;;5031028;28;20041;-64
2023/06/22 01:51:26;;;;;;;37.30;26.17;;;18.60;99.90;;;;;;5031585;28;20459;-64
2023/06/22 01:53:52;;;;;;;36.30;26.55;;;18.50;99.90;;;;;;5013206;28;20072;-64
2023/06/22 01:56:18;;;;;;;37.08;26.13;;;18.50;99.90;;;;;;5031218;28;20040;-64
2023/06/22 01:59:28;;;;;;;32.58;25.38;;;18.50;99.90;;;;;;5030742;28;20048;-64
2023/06/22 02:02:02;;;;;;;37.42;26.73;;;18.50;99.90;;;;;;4992091;28;20045;-64
2023/06/22 02:04:52;;;;;;;35.88;26.67;;;18.40;99.90;;;;;;5018885;28;20492;-64
2023/06/22 02:07:20;;;;;;;34.50;26.60;;;18.50;99.90;;;;;;5009977;28;20531;-64
2023/06/22 02:09:48;;;;;;;31.80;24.10;;;18.50;99.90;;;;;;5010336;28;20042;-64
2023/06/22 02:12:17;;;;;;;34.45;24.67;;;18.40;99.90;;;;;;5011440;28;20084;-64
2023/06/22 02:14:43;;;;;;;35.50;26.13;;;18.40;99.90;;;;;;5013650;28;20377;-64
2023/06/22 02:17:10;;;;;;;35.28;27.30;;;18.40;99.90;;;;;;5013646;28;20034;-64
2023/06/22 02:19:40;;;;;;;37.10;27.60;;;18.40;99.90;;;;;;5014047;28;20038;-64
2023/06/22 02:22:06;;;;;;;;;;;18.30;99.90;;;;;;5014400;28;20168;-64
2023/06/22 02:24:33;;;;;;;34.03;24.33;;;18.30;99.90;;;;;;5013667;28;20031;-64
2023/06/22 02:27:02;;;;;;;31.70;25.13;;;18.30;99.90;;;;;;5017217;28;20065;-64
2023/06/22 02:29:28;;;;;;;35.30;26.15;;;18.30;99.90;;;;;;5015678;28;20045;-64
2023/06/22 02:31:54;;;;;;;31.83;25.23;;;18.40;99.90;;;;;;5033577;28;20044;-64
2023/06/22 02:34:21;;;;;;;33.40;25.65;;;18.30;99.90;;;;;;5015666;28;20247;-64
2023/06/22 02:36:51;;;;;;;35.53;26.17;;;18.30;99.90;;;;;;5015549;28;20037;-64
2023/06/22 02:39:22;;;;;;;30.25;23.58;;;18.20;99.90;;;;;;5033295;28;20044;-64
2023/06/22 02:41:48;;;;;;;29.20;23.38;;;18.20;99.90;;;;;;5033319;28;20052;-64
2023/06/22 02:44:15;;;;;;;24.77;19.73;;;18.10;99.90;;;;;;5032922;28;20092;-65
2023/06/22 02:46:41;;;;;;;25.02;19.45;;;18.10;99.90;;;;;;5033351;28;20041;-65
2023/06/22 02:49:06;;;;;;;22.75;18.77;;;18.00;99.90;;;;;;5032468;28;20044;-65
2023/06/22 02:51:34;;;;;;;26.85;20.52;;;18.00;99.90;;;;;;5033241;28;20407;-65
2023/06/22 02:54:00;;;;;;;27.42;22.15;;;17.90;99.90;;;;;;5015177;28;20046;-64
2023/06/22 02:56:26;;;;;;;28.85;23.05;;;17.90;99.90;;;;;;5032447;28;20073;-64
2023/06/22 02:58:52;;;;;;;29.85;24.58;;;17.90;99.90;;;;;;5032708;28;20065;-64
2023/06/22 03:01:23;;;;;;;25.45;21.25;;;17.90;99.90;;;;;;5032985;28;20079;-64
2023/06/22 03:03:49;;;;;;;27.20;21.83;;;17.90;99.90;;;;;;5032875;28;20041;-64
2023/06/22 03:06:15;;;;;;;29.77;22.73;;;17.90;99.90;;;;;;5032988;28;20042;-64
2023/06/22 03:08:44;;;;;;;26.05;21.67;;;17.90;99.90;;;;;;4994933;28;1108466;-64
2023/06/22 03:11:09;;;;;;;25.35;20.65;;;17.90;99.90;;;;;;5015916;28;20053;-64
2023/06/22 03:13:35;;;;;;;24.08;18.88;;;17.90;99.90;;;;;;5033873;28;20052;-64
2023/06/22 03:16:01;;;;;;;29.98;22.38;;;17.90;99.90;;;;;;5033685;28;20041;-65
2023/06/22 03:18:27;;;;;;;32.55;24.70;;;17.90;99.90;;;;;;5033840;28;20041;-65
2023/06/22 03:20:52;;;;;;;31.17;24.73;;;17.90;99.90;;;;;;5033711;28;20048;-65
2023/06/22 03:23:18;;;;;;;26.50;20.63;;;17.90;99.90;;;;;;5032721;28;20045;-65
2023/06/22 03:25:44;;;;;;;25.38;20.42;;;17.80;99.90;;;;;;5032411;28;20038;-65
2023/06/22 03:28:10;;;;;;;25.67;21.23;;;17.70;99.90;;;;;;5033615;28;20052;-65
2023/06/22 03:30:36;;;;;;;26.52;21.80;;;17.70;99.90;;;;;;5014915;28;20038;-65
2023/06/22 03:33:01;;;;;;;28.10;21.75;;;17.70;99.90;;;;;;5033491;28;20450;-65
2023/06/22 03:35:27;;;;;;;28.27;22.17;;;17.70;99.90;;;;;;5033263;28;20487;-64
2023/06/22 03:37:53;;;;;;;18.48;16.42;;;17.70;99.90;;;;;;5033276;28;20112;-65
2023/06/22 03:40:19;;;;;;;21.50;18.88;;;17.70;99.90;;;;;;5032471;28;20116;-64
2023/06/22 03:42:46;;;;;;;24.30;20.75;;;17.60;99.90;;;;;;5033505;28;20114;-65
2023/06/22 03:45:11;;;;;;;22.02;19.30;;;17.60;99.90;;;;;;5015269;28;20045;-65
2023/06/22 03:47:37;;;;;;;29.88;21.48;;;17.60;99.90;;;;;;5032631;28;20120;-65
2023/06/22 03:50:03;;;;;;;26.92;22.10;;;17.50;99.90;;;;;;5032722;28;20042;-65
2023/06/22 03:52:30;;;;;;;27.73;22.60;;;17.50;99.90;;;;;;5015453;28;20041;-65
2023/06/22 03:54:55;;;;;;;31.45;22.92;;;17.50;99.90;;;;;;5032648;28;20048;-65
2023/06/22 03:57:21;;;;;;;34.03;24.25;;;17.50;99.90;;;;;;5033107;28;20449;-64
2023/06/22 03:59:47;;;;;;;36.80;25.77;;;17.50;99.90;;;;;;5033110;28;20399;-64
2023/06/22 04:02:12;;;;;;;28.25;22.58;;;17.50;99.90;;;;;;5031320;28;20029;-65
2023/06/22 04:04:39;;;;;;;32.42;24.38;;;17.50;99.90;;;;;;5025162;28;20026;-65
2023/06/22 04:07:05;;;;;;;35.72;26.42;;;17.60;99.90;;;;;;5012708;28;20037;-66
2023/06/22 04:09:30;;;;;;;43.75;30.88;;;17.60;99.90;;;;;;5062454;22;20048;-64
2023/06/22 04:11:56;;;;;;;35.45;26.23;;;17.60;99.90;;;;;;5050765;28;20036;-64
2023/06/22 04:14:22;;;;;;;40.08;28.85;;;17.60;99.90;;;;;;5045433;28;20115;-64
2023/06/22 04:16:47;;;;;;;42.63;30.58;;;17.60;99.90;;;;;;5052577;28;20041;-64
2023/06/22 04:19:15;;;;;;;47.15;32.35;;;17.60;99.90;;;;;;5051997;28;20037;-64
2023/06/22 04:21:42;;;;;;;40.03;29.50;;;17.60;99.90;;;;;;5052179;28;20094;-64
2023/06/22 04:24:07;;;;;;;47.75;32.72;;;17.60;99.90;;;;;;5052003;28;20044;-64
2023/06/22 04:26:36;;;;;;;47.42;33.63;;;17.60;99.90;;;;;;5052142;28;20044;-64
2023/06/22 04:29:05;;;;;;;49.20;33.60;;;17.60;99.90;;;;;;5032520;28;20124;-63
2023/06/22 04:31:36;;;;;;;43.42;30.80;;;17.60;99.90;;;;;;5032439;28;20073;-64
2023/06/22 04:34:06;;;;;;;46.63;32.70;;;17.60;99.90;;;;;;5032231;28;20041;-63
2023/06/22 04:36:39;;;;;;;45.30;33.28;;;17.70;99.90;;;;;;5032366;28;20072;-64
2023/06/22 04:39:06;;;;;;;45.80;33.13;;;17.70;99.90;;;;;;5032406;28;20045;-64
2023/06/22 04:41:41;;;;;;;51.45;35.15;;;17.70;99.90;;;;;;5032419;28;20112;-64
2023/06/22 04:44:23;;;;;;;49.47;34.83;;;17.70;99.90;;;;;;5032121;28;20045;-64
2023/06/22 04:47:03;;;;;;;51.55;36.47;;;17.70;99.90;;;;;;5031697;28;20046;-64
2023/06/22 04:49:33;;;;;;;51.08;36.40;;;17.80;99.90;;;;;;5032323;28;20037;-64
2023/06/22 04:51:59;;;;;;;49.30;35.30;;;17.90;99.90;;;;;;5032030;28;20484;-64
2023/06/22 04:54:25;;;;;;;51.05;36.30;;;17.90;99.90;;;;;;5031396;28;20041;-64
2023/06/22 04:56:56;;;;;;;54.97;38.30;;;17.80;99.90;;;;;;5031561;28;20041;-64
2023/06/22 04:59:27;;;;;;;55.60;38.08;;;17.90;99.90;;;;;;5031908;28;20037;-64
2023/06/22 05:01:56;;;;;;;55.75;39.25;;;18.00;99.90;;;;;;5032219;28;20054;-64
2023/06/22 05:04:25;;;;;;;59.70;41.67;;;18.00;99.90;;;;;;5030733;28;20037;-64
2023/06/22 05:06:51;;;;;;;58.63;41.05;;;18.00;99.90;;;;;;5031927;28;20083;-64
2023/06/22 05:09:17;;;;;;;59.85;40.50;;;18.00;99.90;;;;;;5031608;28;20080;-64
2023/06/22 05:11:43;;;;;;;63.13;41.53;;;18.10;99.90;;;;;;5030484;28;20072;-63
2023/06/22 05:14:09;;;;;;;63.50;41.42;;;18.20;99.90;;;;;;5030551;28;20463;-64
2023/06/22 05:16:36;;;;;;;57.90;41.30;;;18.20;99.90;;;;;;5031969;28;20116;-64
2023/06/22 05:19:03;;;;;;;64.20;41.67;;;18.30;99.90;;;;;;5031726;28;20429;-64
2023/06/22 05:21:30;;;;;;;66.63;42.10;;;18.30;99.90;;;;;;5031524;28;20041;-64
2023/06/22 05:23:59;;;;;;;62.95;42.50;;;18.40;99.90;;;;;;5031467;28;20045;-64
2023/06/22 05:26:26;;;;;;;60.45;41.72;;;18.40;99.90;;;;;;5031300;28;20045;-64
2023/06/22 05:28:52;;;;;;;63.63;42.35;;;18.50;99.90;;;;;;5030263;28;20404;-64
2023/06/22 05:31:19;;;;;;;62.10;43.22;;;18.50;99.90;;;;;;5029930;28;20042;-64
2023/06/22 05:33:46;;;;;;;63.53;42.40;;;18.60;99.90;;;;;;5013826;28;20041;-64
2023/06/22 05:36:12;;;;;;;57.70;42.17;;;18.80;99.90;;;;;;5031632;28;20083;-64
2023/06/22 05:38:38;;;;;;;58.65;40.20;;;18.90;99.90;;;;;;5030449;28;20487;-64
2023/06/22 05:41:04;;;;;;;59.75;41.40;;;19.00;99.90;;;;;;5031453;28;20068;-64
2023/06/22 05:43:30;;;;;;;59.33;39.47;;;19.10;99.90;;;;;;5030202;28;20437;-64
2023/06/22 05:45:55;;;;;;;60.72;40.85;;;19.20;99.90;;;;;;5031709;28;20804;-64
2023/06/22 05:48:21;;;;;;;58.03;38.83;;;19.20;99.90;;;;;;5034076;28;20073;-64
2023/06/22 05:50:47;;;;;;;55.75;38.63;;;19.30;99.90;;;;;;5035086;28;20041;-64
2023/06/22 05:53:12;;;;;;;56.90;40.00;;;19.30;99.90;;;;;;5035207;28;20077;-64
2023/06/22 05:55:38;;;;;;;55.67;38.97;;;19.30;99.90;;;;;;5035705;28;20072;-64
2023/06/22 05:58:04;;;;;;;52.72;38.22;;;19.30;99.90;;;;;;5034873;28;20072;-64
2023/06/22 06:00:30;;;;;;;51.70;37.13;;;19.40;99.90;;;;;;5034947;28;20052;-64
2023/06/22 06:02:55;;;;;;;53.75;37.17;;;19.30;99.90;;;;;;5034980;28;20049;-64
2023/06/22 06:05:22;;;;;;;52.47;35.97;;;19.40;99.90;;;;;;5035039;28;20037;-64
2023/06/22 06:07:48;;;;;;;49.22;34.88;;;19.40;99.90;;;;;;5034702;28;20038;-64
2023/06/22 06:10:14;;;;;;;53.50;35.95;;;19.50;99.90;;;;;;5034932;28;20483;-64
2023/06/22 06:12:39;;;;;;;47.00;34.60;;;19.60;99.90;;;;;;5033709;28;20034;-64
2023/06/22 06:15:05;;;;;;;50.70;35.72;;;19.70;99.90;;;;;;5034921;28;20037;-64
2023/06/22 06:17:31;;;;;;;47.45;33.97;;;19.90;99.90;;;;;;5034880;28;20399;-65
2023/06/22 06:19:59;;;;;;;48.90;33.72;;;19.90;99.90;;;;;;5033600;28;20041;-64
2023/06/22 06:22:25;;;;;;;45.47;31.90;;;20.00;99.90;;;;;;5034803;28;20033;-64
2023/06/22 06:24:50;;;;;;;48.78;33.05;;;20.00;99.90;;;;;;5034514;28;20175;-64
2023/06/22 06:27:18;;;;;;;43.33;32.45;;;20.20;99.90;;;;;;5034585;28;20037;-64
2023/06/22 06:29:45;;;;;;;46.15;31.20;;;20.40;99.90;;;;;;5034809;28;20045;-64
2023/06/22 06:32:12;;;;;;;41.83;30.20;;;20.50;99.90;;;;;;5034699;28;20041;-64
2023/06/22 06:34:37;;;;;;;36.55;28.92;;;20.50;99.90;;;;;;5033038;28;20073;-64
2023/06/22 06:37:03;;;;;;;35.70;27.00;;;20.50;99.90;;;;;;5034516;28;20069;-64
2023/06/22 06:39:29;;;;;;;37.15;25.58;;;20.50;99.90;;;;;;5034762;28;20033;-64
2023/06/22 06:41:54;;;;;;;33.78;25.55;;;20.70;99.90;;;;;;5034655;28;20122;-64
2023/06/22 06:44:20;;;;;;;32.45;24.40;;;20.80;99.90;;;;;;5034356;28;20084;-64
2023/06/22 06:46:46;;;;;;;33.10;25.38;;;20.90;99.90;;;;;;5034542;28;20071;-65
2023/06/22 06:49:13;;;;;;;35.97;26.40;;;20.90;99.90;;;;;;5034176;28;20099;-64
2023/06/22 06:51:38;;;;;;;35.50;26.30;;;21.00;99.90;;;;;;5034167;28;20047;-64
2023/06/22 06:54:04;;;;;;;36.28;25.65;;;21.00;99.90;;;;;;5033972;28;20099;-64
2023/06/22 06:56:30;;;;;;;30.27;23.42;;;21.10;99.90;;;;;;5034463;28;20527;-64
2023/06/22 06:58:55;;;;;;;32.58;23.88;;;21.30;99.90;;;;;;5032454;28;20041;-64
2023/06/22 07:01:21;;;;;;;32.47;25.58;;;21.40;99.90;;;;;;5034235;28;20042;-65
2023/06/22 07:03:46;;;;;;;32.10;24.83;;;21.50;99.90;;;;;;5033491;28;20045;-64
2023/06/22 07:06:13;;;;;;;27.48;20.13;;;21.60;99.90;;;;;;5033546;28;20038;-64
2023/06/22 07:08:39;;;;;;;27.63;20.77;;;21.60;99.90;;;;;;5033293;28;20048;-64
2023/06/22 07:11:05;;;;;;;21.27;17.23;;;21.70;99.90;;;;;;5034109;28;20041;-64
2023/06/22 07:13:31;;;;;;;20.52;15.48;;;21.70;99.90;;;;;;5033846;28;20055;-64
2023/06/22 07:15:57;;;;;;;20.98;15.57;;;21.80;99.90;;;;;;5033967;28;20045;-64
2023/06/22 07:18:23;;;;;;;25.90;18.08;;;21.90;99.90;;;;;;5033682;28;20037;-64
2023/06/22 07:20:48;;;;;;;24.35;17.38;;;22.00;99.90;;;;;;5033714;28;20120;-64
2023/06/22 07:23:14;;;;;;;21.00;16.63;;;21.90;99.90;;;;;;5033248;28;20073;-64
2023/06/22 07:25:40;;;;;;;24.13;16.67;;;22.00;99.90;;;;;;5033839;28;20634;-64
2023/06/22 07:28:07;;;;;;;19.05;15.02;;;22.10;99.90;;;;;;5033525;28;20045;-64
2023/06/22 07:30:33;;;;;;;17.30;12.73;;;22.10;99.90;;;;;;5033482;28;20507;-65
2023/06/22 07:33:03;;;;;;;18.90;13.15;;;22.20;99.90;;;;;;5032102;28;20384;-64
2023/06/22 07:35:32;;;;;;;15.30;11.88;;;22.30;99.90;;;;;;5032246;28;20038;-64
2023/06/22 07:37:58;;;;;;;17.10;11.60;;;22.40;99.90;;;;;;5032712;28;20041;-64
2023/06/22 07:40:23;;;;;;;15.23;11.35;;;22.50;99.90;;;;;;5033198;28;20033;-64
2023/06/22 07:42:51;;;;;;;15.27;11.35;;;22.60;99.90;;;;;;5033049;28;20068;-64
2023/06/22 07:45:17;;;;;;;15.02;11.90;;;22.80;99.90;;;;;;5033177;28;20041;-64
2023/06/22 07:47:43;;;;;;;15.45;12.10;;;22.90;99.90;;;;;;5032775;28;20099;-64
2023/06/22 07:50:09;;;;;;;16.23;12.23;;;23.00;99.90;;;;;;5033059;28;20064;-64
2023/06/22 07:52:35;;;;;;;15.77;12.05;;;23.10;99.90;;;;;;5032628;28;20041;-64
2023/06/22 07:55:02;;;;;;;16.33;12.52;;;23.00;99.90;;;;;;5033079;28;20039;-64
2023/06/22 07:57:33;;;;;;;18.98;11.80;;;23.10;99.90;;;;;;5033139;28;20041;-64
2023/06/22 07:59:59;;;;;;;15.63;11.52;;;23.10;99.90;;;;;;5032995;28;20103;-64
2023/06/22 08:02:25;;;;;;;15.85;11.73;;;23.10;99.90;;;;;;5033048;28;20034;-64
2023/06/22 08:04:51;;;;;;;14.60;10.98;;;23.20;99.90;;;;;;5032618;28;20064;-64
2023/06/22 08:07:18;;;;;;;16.33;10.77;;;23.20;99.90;;;;;;5032535;28;20064;-64
2023/06/22 08:09:48;;;;;;;13.20;9.93;;;23.30;99.90;;;;;;5031984;28;20077;-64
2023/06/22 08:12:14;;;;;;;14.82;10.63;;;23.40;99.90;;;;;;5033113;28;20047;-64
2023/06/22 08:14:43;;;;;;;14.57;10.45;;;23.50;99.90;;;;;;5032138;28;20033;-64
2023/06/22 08:17:09;;;;;;;13.43;10.52;;;23.60;99.90;;;;;;5032731;28;20120;-64
2023/06/22 08:19:35;;;;;;;12.60;9.95;;;23.70;99.90;;;;;;5031888;28;20117;-64
2023/06/22 08:22:00;;;;;;;13.82;9.80;;;23.80;99.90;;;;;;5032437;28;20131;-64
2023/06/22 08:24:30;;;;;;;14.02;10.07;;;23.90;99.90;;;;;;5030764;28;20056;-65
2023/06/22 08:26:56;;;;;;;12.90;10.55;;;24.00;99.90;;;;;;5032533;28;20041;-64
2023/06/22 08:29:21;;;;;;;13.45;9.68;;;24.10;99.90;;;;;;5031910;28;20045;-64
2023/06/22 08:31:47;;;;;;;14.00;10.02;;;24.20;99.90;;;;;;5032382;28;20042;-64
2023/06/22 08:34:12;;;;;;;12.88;10.27;;;24.30;99.90;;;;;;5031675;28;20045;-65
2023/06/22 08:36:44;;;;;;;15.88;10.38;;;24.40;99.90;;;;;;5032603;28;20069;-64
2023/06/22 08:39:10;;;;;;;13.38;9.60;;;24.40;99.90;;;;;;5032076;28;20073;-64
2023/06/22 08:41:36;;;;;;;14.43;9.90;;;24.30;99.90;;;;;;5032344;28;20122;-64
2023/06/22 08:44:02;;;;;;;12.95;9.63;;;24.30;99.90;;;;;;5031669;28;20402;-64
2023/06/22 08:46:31;;;;;;;12.23;9.90;;;24.40;99.90;;;;;;5031647;28;20574;-64
2023/06/22 08:48:57;;;;;;;13.65;10.95;;;24.50;99.90;;;;;;5031822;28;20056;-64
2023/06/22 08:51:23;;;;;;;15.15;10.45;;;24.50;99.90;;;;;;5032071;28;20487;-64
2023/06/22 08:53:49;;;;;;;12.40;9.48;;;24.50;99.90;;;;;;5030562;28;20095;-64
2023/06/22 08:56:14;;;;;;;12.95;9.70;;;24.60;99.90;;;;;;5031727;28;20113;-65
2023/06/22 08:58:40;;;;;;;16.35;10.75;;;24.70;99.90;;;;;;5031533;28;20033;-64
2023/06/22 09:01:06;;;;;;;13.38;10.50;;;24.70;99.90;;;;;;5031952;28;20041;-65
2023/06/22 09:03:32;;;;;;;13.88;10.68;;;24.60;99.90;;;;;;5031248;28;20045;-64
2023/06/22 09:05:58;;;;;;;16.83;11.15;;;24.60;99.90;;;;;;5032109;28;20045;-64
2023/06/22 09:08:24;;;;;;;12.77;9.80;;;24.70;99.90;;;;;;5031624;28;20091;-64
2023/06/22 09:10:50;;;;;;;11.60;9.52;;;24.90;99.90;;;;;;5031382;28;20049;-65
2023/06/22 09:13:15;;;;;;;13.15;9.30;;;25.10;99.90;;;;;;5031602;28;20033;-63
2023/06/22 09:15:41;;;;;;;13.20;10.13;;;25.20;99.90;;;;;;5031378;28;20044;-64
2023/06/22 09:18:09;;;;;;;11.50;9.55;;;25.20;99.90;;;;;;5031916;28;20041;-64
2023/06/22 09:20:35;;;;;;;14.10;10.13;;;25.20;99.90;;;;;;5031274;28;20046;-64
2023/06/22 09:23:01;;;;;;;13.15;9.90;;;25.30;99.90;;;;;;5034195;28;20044;-64
2023/06/22 09:25:26;;;;;;;13.63;9.95;;;25.40;99.90;;;;;;5035469;28;20041;-64
2023/06/22 09:27:52;;;;;;;13.95;10.65;;;25.30;99.90;;;;;;5035812;28;20064;-64
2023/06/22 09:30:17;;;;;;;14.45;9.52;;;25.40;99.90;;;;;;5035024;28;20063;-64
2023/06/22 09:32:43;;;;;;;14.10;9.73;;;25.50;99.90;;;;;;5035944;28;20037;-65
2023/06/22 09:35:09;;;;;;;13.98;10.25;;;25.30;99.90;;;;;;5035097;28;20103;-64
2023/06/22 09:37:35;;;;;;;14.73;10.68;;;25.30;99.90;;;;;;5033880;28;20073;-65
2023/06/22 09:40:04;;;;;;;13.35;10.07;;;25.30;99.90;;;;;;5035302;28;20376;-64
2023/06/22 09:42:29;;;;;;;12.20;9.70;;;25.20;99.90;;;;;;5035663;28;20047;-65
2023/06/22 09:44:55;;;;;;;12.68;9.90;;;25.20;99.90;;;;;;5035118;28;20112;-64
2023/06/22 09:47:21;;;;;;;12.63;10.57;;;25.30;99.90;;;;;;5035639;28;20034;-65
2023/06/22 09:49:46;;;;;;;16.30;10.07;;;25.40;99.90;;;;;;5035488;28;20033;-64
2023/06/22 09:52:12;;;;;;;15.10;10.57;;;25.40;99.90;;;;;;5034338;28;20050;-64
2023/06/22 09:54:38;;;;;;;12.45;9.32;;;25.30;99.90;;;;;;5035042;28;20033;-64
2023/06/22 09:57:03;;;;;;;14.00;10.40;;;25.30;99.90;;;;;;5035412;28;20037;-64
2023/06/22 09:59:29;;;;;;;11.40;9.55;;;25.10;99.90;;;;;;5034920;28;20038;-64
2023/06/22 10:01:55;;;;;;;13.32;10.25;;;25.00;99.90;;;;;;5034965;28;20041;-65
2023/06/22 10:04:20;;;;;;;11.75;8.90;;;25.00;99.90;;;;;;5034818;28;20053;-64
2023/06/22 10:06:46;;;;;;;13.18;9.90;;;25.00;99.90;;;;;;5034202;28;20041;-64
2023/06/22 10:09:11;;;;;;;12.82;9.43;;;25.20;99.90;;;;;;5057407;22;20442;-65
2023/06/22 10:11:37;;;;;;;9.80;8.65;;;25.30;99.90;;;;;;5036690;28;20037;-65
2023/06/22 10:14:04;;;;;;;11.43;8.80;;;25.60;99.90;;;;;;5046039;28;20037;-66
2023/06/22 10:16:33;;;;;;;12.25;8.85;;;25.90;99.90;;;;;;5054619;28;20556;-65
2023/06/22 10:18:59;;;;;;;11.18;8.68;;;26.10;99.90;;;;;;5054888;28;20107;-66
2023/06/22 10:21:26;;;;;;;10.93;9.50;;;26.30;99.90;;;;;;5054898;28;20124;-66
2023/06/22 10:23:52;;;;;;;10.85;8.75;;;26.20;99.90;;;;;;5054578;28;20037;-66
2023/06/22 10:26:18;;;;;;;13.82;10.02;;;26.10;99.90;;;;;;5054751;28;20051;-65
2023/06/22 10:28:43;;;;;;;11.88;8.55;;;26.10;99.90;;;;;;5036107;28;20037;-66
2023/06/22 10:31:09;;;;;;;12.60;9.13;;;26.20;99.90;;;;;;5016582;28;20038;-63
2023/06/22 10:33:34;;;;;;;13.07;9.38;;;26.30;99.90;;;;;;5033830;28;20049;-64
2023/06/22 10:36:00;;;;;;;14.98;9.23;;;26.30;99.90;;;;;;5016544;28;20041;-65
2023/06/22 10:38:25;;;;;;;9.45;8.52;;;26.20;99.90;;;;;;5034483;28;20114;-66
2023/06/22 10:40:51;;;;;;;11.43;8.40;;;26.10;99.90;;;;;;5034245;28;20045;-67
2023/06/22 10:43:17;;;;;;;12.57;8.52;;;26.20;99.90;;;;;;5033277;28;20052;-67
2023/06/22 10:45:43;;;;;;;13.98;8.27;;;26.30;99.90;;;;;;5034075;28;20049;-67
2023/06/22 10:48:09;;;;;;;13.27;8.85;;;26.40;99.90;;;;;;5034472;28;20412;-67
2023/06/22 10:50:34;;;;;;;10.57;8.32;;;26.40;99.90;;;;;;5034171;28;20040;-67
2023/06/22 10:53:00;;;;;;;12.48;8.93;;;26.40;99.70;;;;;;5034303;28;20116;-67
2023/06/22 10:55:26;;;;;;;10.68;7.75;;;26.40;99.50;;;;;;5034020;28;20479;-67
2023/06/22 10:57:52;;;;;;;10.65;9.23;;;26.40;98.90;;;;;;5030947;28;20561;-67
2023/06/22 11:00:17;;;;;;;11.43;8.85;;;26.40;98.90;;;;;;5033664;28;20045;-67
2023/06/22 11:02:43;;;;;;;10.57;7.82;;;26.40;98.80;;;;;;5034120;28;20217;-67
2023/06/22 11:05:09;;;;;;;11.55;8.00;;;26.50;99.00;;;;;;5033304;28;20077;-67
2023/06/22 11:07:35;;;;;;;10.10;7.35;;;26.50;99.00;;;;;;5034081;28;20517;-67
2023/06/22 11:10:00;;;;;;;11.68;7.97;;;26.70;99.20;;;;;;5028435;28;20449;-67
2023/06/22 11:12:26;;;;;;;10.32;8.13;;;26.90;98.60;;;;;;5033513;28;20364;-67
2023/06/22 11:14:52;;;;;;;11.18;7.93;;;27.10;98.10;;;;;;5031674;28;20026;-67
2023/06/22 11:17:18;;;;;;;10.68;7.47;;;27.00;97.90;;;;;;5033460;28;20030;-67
2023/06/22 11:19:44;;;;;;;7.22;6.40;;;27.00;98.20;;;;;;5016053;28;20117;-67
2023/06/22 11:22:10;;;;;;;11.50;7.57;;;27.00;98.30;;;;;;5033730;28;20037;-67
2023/06/22 11:24:36;;;;;;;12.35;8.60;;;27.00;97.80;;;;;;5032461;28;20037;-67
2023/06/22 11:27:01;;;;;;;11.70;7.78;;;27.00;97.60;;;;;;5032024;28;20041;-68
2023/06/22 11:29:27;;;;;;;10.15;7.60;;;26.90;96.40;;;;;;5033549;28;20124;-67
2023/06/22 11:31:53;;;;;;;10.60;8.13;;;26.80;96.00;;;;;;5026220;28;20045;-67
2023/06/22 11:34:19;;;;;;;9.43;7.32;;;26.80;96.10;;;;;;5020581;28;20476;-67
2023/06/22 11:36:45;;;;;;;9.95;6.57;;;26.70;96.60;;;;;;5021044;28;20041;-67
2023/06/22 11:39:11;;;;;;;11.57;7.50;;;26.50;96.00;;;;;;5032338;28;20491;-67
2023/06/22 11:41:37;;;;;;;11.00;7.18;;;26.50;95.80;;;;;;5019375;28;20510;-68
2023/06/22 11:44:04;;;;;;;11.77;7.55;;;26.50;96.10;;;;;;5025334;28;20049;-67
2023/06/22 11:46:30;;;;;;;10.35;6.82;;;26.50;96.50;;;;;;5026804;28;20041;-67
2023/06/22 11:48:55;;;;;;;10.60;7.47;;;26.50;96.80;;;;;;5026498;28;20041;-68
2023/06/22 11:51:21;;;;;;;9.52;7.65;;;26.50;96.80;;;;;;5024223;28;20038;-67
2023/06/22 11:53:46;;;;;;;10.27;7.50;;;26.50;97.20;;;;;;5025397;28;20040;-67
2023/06/22 11:56:12;;;;;;;12.40;8.15;;;26.50;96.90;;;;;;5030507;28;20029;-67
2023/06/22 11:58:38;;;;;;;11.55;8.98;;;26.50;96.70;;;;;;5032929;28;20033;-67
2023/06/22 12:01:04;;;;;;;11.07;8.07;;;26.40;96.90;;;;;;5012861;28;20047;-67
2023/06/22 12:03:30;;;;;;;11.43;8.48;;;26.30;96.70;;;;;;5030991;28;20041;-67
2023/06/22 12:05:56;;;;;;;14.02;9.35;;;26.10;96.70;;;;;;5029022;28;20388;-67
2023/06/22 12:08:21;;;;;;;13.65;8.57;;;26.10;97.50;;;;;;5028688;28;20045;-67
2023/06/22 12:10:47;;;;;;;11.00;8.23;;;26.00;97.70;;;;;;5028624;28;20132;-67
2023/06/22 12:13:13;;;;;;;10.80;8.63;;;26.10;98.40;;;;;;5026438;28;20033;-67
2023/06/22 12:15:38;;;;;;;11.27;8.60;;;26.20;97.80;;;;;;5022456;28;20446;-68
2023/06/22 12:18:04;;;;;;;12.43;8.80;;;26.30;97.90;;;;;;5028773;28;20133;-67
2023/06/22 12:20:30;;;;;;;12.30;8.50;;;26.40;98.20;;;;;;5030600;28;20501;-67
2023/06/22 12:22:58;;;;;;;9.55;8.48;;;26.40;97.70;;;;;;5029737;28;20037;-67
2023/06/22 12:25:23;;;;;;;10.10;8.10;;;26.40;97.90;;;;;;5029479;28;20041;-68
2023/06/22 12:27:49;;;;;;;14.13;8.38;;;26.30;98.00;;;;;;5011067;28;20034;-67
2023/06/22 12:30:16;;;;;;;11.23;8.65;;;26.30;97.70;;;;;;5027162;28;20052;-67